Barrowford, United Kingdom
Current Conditions -  °F | °C
As of 2:20 PM on Saturday 20 Dec 2014 (Local Time) from EGNM Reporting Station
Scattered Clouds Scattered Clouds  
Wind Chill: 33°   Ceiling: Unl
Heat Index: 43°   Visibility: 6mi
Dew Point: 39°   Wind: 24mph
Humidity: 87%   Direction: 280°W
Pressure: 30.18"   Gusts: NA
Location:  53.85°N, 2.22°W
Report Text: EGNM 201420Z 28021KT 9999 SCT015 06/04 Q1022
Loading
Personal Weather Stations






























Interactive Weather Map New forecast layout! Learn more

10-Day Weather Forecast

Advertisements
Track Severe Weather on mobile